createdAt,value
2019-04-07T00:01:26.361Z,6.45
2019-04-07T00:03:54.942Z,5.15
2019-04-07T00:06:23.609Z,6.35
2019-04-07T00:08:52.626Z,4.25
2019-04-07T00:11:21.516Z,5.75
2019-04-07T00:13:50.288Z,4.50
2019-04-07T00:16:18.846Z,4.65
2019-04-07T00:18:47.387Z,5.78
2019-04-07T00:21:15.940Z,5.95
2019-04-07T00:23:44.246Z,6.15
2019-04-07T00:26:12.846Z,4.33
2019-04-07T00:28:42.084Z,6.55
2019-04-07T00:31:10.682Z,8.03
2019-04-07T00:33:39.153Z,6.53
2019-04-07T00:36:07.651Z,6.80
2019-04-07T00:38:36.191Z,4.55
2019-04-07T00:41:04.614Z,5.05
2019-04-07T00:43:33.993Z,5.10
2019-04-07T00:46:02.670Z,8.60
2019-04-07T00:48:31.177Z,8.95
2019-04-07T00:50:59.486Z,6.00
2019-04-07T00:53:28.865Z,5.37
2019-04-07T00:55:57.754Z,5.97
2019-04-07T00:58:26.928Z,9.65
2019-04-07T01:00:55.422Z,7.10
2019-04-07T01:03:23.802Z,8.30
2019-04-07T01:05:52.270Z,6.03
2019-04-07T01:08:20.645Z,5.47
2019-04-07T01:10:49.093Z,5.67
2019-04-07T01:13:17.669Z,5.90
2019-04-07T01:15:46.287Z,6.12
2019-04-07T01:18:15.366Z,6.47
2019-04-07T01:20:44.004Z,6.83
2019-04-07T01:23:12.742Z,7.60
2019-04-07T01:25:41.173Z,7.85
2019-04-07T01:28:09.811Z,7.20
2019-04-07T01:30:38.470Z,7.65
2019-04-07T01:33:07.593Z,10.80
2019-04-07T01:35:45.017Z,11.45
2019-04-07T01:38:06.305Z,8.38
2019-04-07T01:40:35.362Z,6.42
2019-04-07T01:43:11.348Z,5.97
2019-04-07T01:45:44.569Z,6.10
2019-04-07T01:48:24.194Z,6.40
2019-04-07T01:50:54.572Z,7.62
2019-04-07T01:53:24.713Z,6.85
2019-04-07T01:56:11.058Z,7.20
2019-04-07T01:58:41.645Z,6.33
2019-04-07T02:01:20.880Z,6.72
2019-04-07T02:04:06.746Z,7.72
2019-04-07T02:06:53.187Z,9.88
2019-04-07T02:09:26.461Z,11.10
2019-04-07T02:12:13.320Z,8.80
2019-04-07T02:14:58.376Z,7.70
2019-04-07T02:17:28.584Z,9.43
2019-04-07T02:20:07.881Z,8.63
2019-04-07T02:22:50.818Z,7.08
2019-04-07T02:25:36.162Z,7.03
2019-04-07T02:30:42.410Z,7.35
2019-04-07T02:33:24.505Z,7.53
2019-04-07T02:35:54.704Z,6.92
2019-04-07T02:38:41.000Z,7.45
2019-04-07T02:41:27.594Z,6.83
2019-04-07T02:44:01.508Z,6.12
2019-04-07T02:46:35.104Z,8.53
2019-04-07T02:49:05.935Z,6.22
2019-04-07T02:51:38.659Z,6.55
2019-04-07T02:54:15.473Z,9.05
2019-04-07T02:56:46.153Z,5.97
2019-04-07T02:59:25.591Z,9.48
2019-04-07T03:02:12.111Z,7.12
2019-04-07T03:05:00.061Z,6.08
2019-04-07T03:07:32.843Z,10.48
2019-04-07T03:10:05.837Z,6.10
2019-04-07T03:12:35.857Z,6.15
2019-04-07T03:15:07.040Z,6.67
2019-04-07T03:17:37.590Z,5.95
2019-04-07T03:20:08.712Z,5.47
2019-04-07T03:22:44.436Z,7.95
2019-04-07T03:25:15.609Z,6.62
2019-04-07T03:27:48.738Z,7.87
2019-04-07T03:30:24.308Z,6.70
2019-04-07T03:33:12.785Z,7.10
2019-04-07T03:35:46.180Z,6.37
2019-04-07T03:38:31.491Z,6.67
2019-04-07T03:41:11.804Z,6.90
2019-04-07T03:43:42.728Z,6.10
2019-04-07T03:46:14.219Z,5.90
2019-04-07T03:48:47.925Z,6.22
2019-04-07T03:51:18.985Z,6.30
2019-04-07T03:54:04.339Z,6.30
2019-04-07T03:59:10.859Z,6.08
2019-04-07T04:01:57.570Z,6.08
2019-04-07T04:04:28.547Z,8.00
2019-04-07T04:07:16.419Z,7.55
2019-04-07T04:09:33.101Z,8.05
2019-04-07T04:12:19.509Z,6.53
2019-04-07T04:15:06.811Z,6.72
2019-04-07T04:17:35.326Z,7.62
2019-04-07T04:20:06.559Z,6.97
2019-04-07T04:22:35.968Z,7.25
2019-04-07T04:25:05.915Z,5.60
2019-04-07T04:27:35.153Z,5.83
2019-04-07T04:30:05.525Z,7.78
2019-04-07T04:32:34.010Z,6.65
2019-04-07T04:35:03.164Z,6.78
2019-04-07T04:37:40.341Z,7.12
2019-04-07T04:40:02.033Z,5.60
2019-04-07T04:42:31.184Z,8.25
2019-04-07T04:45:02.228Z,7.97
2019-04-07T04:47:31.132Z,8.10
2019-04-07T04:49:59.940Z,7.60
2019-04-07T04:52:28.342Z,6.40
2019-04-07T04:54:57.136Z,6.42
2019-04-07T04:57:25.661Z,9.85
2019-04-07T04:59:54.149Z,5.97
2019-04-07T05:02:23.574Z,10.48
2019-04-07T05:04:52.770Z,5.85
2019-04-07T05:07:22.205Z,6.58
2019-04-07T05:09:54.167Z,8.03
2019-04-07T05:12:21.989Z,8.35
2019-04-07T05:14:50.477Z,6.45
2019-04-07T05:17:19.084Z,6.42
2019-04-07T05:19:47.606Z,10.25
2019-04-07T05:22:16.656Z,6.22
2019-04-07T05:24:45.550Z,6.03
2019-04-07T05:27:13.978Z,6.72
2019-04-07T05:29:42.396Z,8.18
2019-04-07T05:32:11.087Z,7.05
2019-04-07T05:34:40.269Z,8.40
2019-04-07T05:37:08.895Z,8.08
2019-04-07T05:39:37.375Z,6.72
2019-04-07T05:42:05.866Z,8.18
2019-04-07T05:44:34.451Z,9.70
2019-04-07T05:47:03.062Z,8.08
2019-04-07T05:49:31.608Z,9.88
2019-04-07T05:52:04.042Z,8.53
2019-04-07T05:54:30.381Z,8.45
2019-04-07T05:57:01.342Z,8.88
2019-04-07T05:59:29.619Z,9.18
2019-04-07T06:02:01.578Z,7.17
2019-04-07T06:04:29.149Z,7.83
2019-04-07T06:06:58.115Z,7.83
2019-04-07T06:09:26.540Z,9.60
2019-04-07T06:11:55.018Z,7.97
2019-04-07T06:14:24.280Z,8.13
2019-04-07T06:16:55.343Z,9.05
2019-04-07T06:19:23.693Z,7.58
2019-04-07T06:21:52.678Z,13.25
2019-04-07T06:24:22.433Z,8.13
2019-04-07T06:26:51.013Z,10.05
2019-04-07T06:29:19.990Z,8.25
2019-04-07T06:31:48.489Z,7.72
2019-04-07T06:34:17.201Z,9.63
2019-04-07T06:36:46.309Z,9.58
2019-04-07T06:39:17.181Z,7.95
2019-04-07T06:41:45.667Z,12.55
2019-04-07T06:44:19.409Z,9.95
2019-04-07T06:47:01.163Z,9.53
2019-04-07T06:49:47.181Z,9.38
2019-04-07T06:52:18.290Z,9.90
2019-04-07T06:54:50.153Z,11.38
2019-04-07T06:57:37.441Z,9.13
2019-04-07T07:00:14.236Z,9.35
2019-04-07T07:02:45.456Z,8.53
2019-04-07T07:05:27.905Z,9.95
2019-04-07T07:08:00.878Z,8.58
2019-04-07T07:10:46.770Z,8.78
2019-04-07T07:13:28.417Z,9.45
2019-04-07T07:15:58.424Z,11.35
2019-04-07T07:18:32.237Z,9.45
2019-04-07T07:21:12.032Z,8.38
2019-04-07T07:23:47.642Z,10.13
2019-04-07T07:26:12.414Z,8.60
2019-04-07T07:28:42.873Z,9.55
2019-04-07T07:31:11.185Z,8.15
2019-04-07T07:33:41.792Z,9.48
2019-04-07T07:36:09.876Z,8.63
2019-04-07T07:38:38.501Z,8.38
2019-04-07T07:41:06.856Z,8.33
2019-04-07T07:43:35.200Z,9.60
2019-04-07T07:46:03.761Z,7.58
2019-04-07T07:48:32.322Z,8.23
2019-04-07T07:51:01.203Z,10.32
2019-04-07T07:53:29.830Z,8.50
2019-04-07T07:55:58.266Z,8.85
2019-04-07T07:58:30.206Z,9.70
2019-04-07T08:01:00.091Z,7.78
2019-04-07T08:03:27.297Z,8.45
2019-04-07T08:05:56.528Z,10.60
2019-04-07T08:08:25.353Z,9.05
2019-04-07T08:10:59.093Z,8.13
2019-04-07T08:13:24.797Z,9.00
2019-04-07T08:15:54.622Z,7.95
2019-04-07T08:18:23.769Z,9.38
2019-04-07T08:20:52.261Z,8.78
2019-04-07T08:23:21.069Z,7.42
2019-04-07T08:25:52.872Z,8.38
2019-04-07T08:28:20.673Z,10.13
2019-04-07T08:30:50.295Z,7.60
2019-04-07T08:33:18.978Z,8.85
2019-04-07T08:35:47.991Z,9.95
2019-04-07T08:38:20.763Z,12.07
2019-04-07T08:40:46.913Z,8.88
2019-04-07T08:43:19.629Z,8.63
2019-04-07T08:45:46.048Z,7.92
2019-04-07T08:48:18.251Z,9.15
2019-04-07T08:50:45.253Z,8.53
2019-04-07T08:53:14.106Z,12.73
2019-04-07T08:55:44.371Z,8.00
2019-04-07T08:58:23.619Z,13.45
2019-04-07T09:00:50.955Z,9.10
2019-04-07T09:03:18.412Z,21.20
2019-04-07T09:05:47.854Z,8.90
2019-04-07T09:08:17.235Z,8.50
2019-04-07T09:11:04.674Z,8.23
2019-04-07T09:13:34.231Z,10.40
2019-04-07T09:16:04.815Z,8.48
2019-04-07T09:18:57.809Z,11.00
2019-04-07T09:21:40.897Z,10.40
2019-04-07T09:24:29.732Z,10.18
2019-04-07T09:27:09.090Z,11.83
2019-04-07T09:29:45.299Z,13.70
2019-04-07T09:32:22.540Z,10.75
2019-04-07T09:35:07.204Z,11.88
2019-04-07T09:37:36.743Z,12.23
2019-04-07T09:40:25.737Z,11.38
2019-04-07T09:43:00.849Z,13.78
2019-04-07T09:45:52.920Z,13.60
2019-04-07T09:48:24.031Z,17.82
2019-04-07T09:51:07.371Z,15.28
2019-04-07T09:53:48.805Z,15.72
2019-04-07T09:56:37.518Z,18.32
2019-04-07T09:59:07.902Z,19.57
2019-04-07T10:01:38.912Z,18.42
2019-04-07T10:04:25.639Z,30.37
2019-04-07T10:07:02.668Z,18.27
2019-04-07T10:09:49.213Z,34.92
2019-04-07T10:12:19.693Z,21.23
2019-04-07T10:14:56.325Z,18.80
2019-04-07T10:17:26.638Z,20.90
2019-04-07T10:20:14.343Z,18.65
2019-04-07T10:22:57.435Z,23.85
2019-04-07T10:25:30.507Z,24.60
2019-04-07T10:28:00.943Z,21.42
2019-04-07T10:30:39.940Z,25.12
2019-04-07T10:33:10.064Z,26.97
2019-04-07T10:35:56.849Z,25.75
2019-04-07T10:38:26.994Z,27.15
2019-04-07T10:41:14.024Z,30.00
2019-04-07T10:43:45.153Z,30.05
2019-04-07T10:46:15.774Z,31.20
2019-04-07T10:48:51.724Z,32.65
2019-04-07T10:51:27.441Z,30.92
2019-04-07T10:54:03.750Z,38.17
2019-04-07T10:56:34.445Z,33.60
2019-04-07T10:59:07.445Z,32.73
2019-04-07T11:01:46.413Z,33.08
2019-04-07T11:04:25.537Z,25.95
2019-04-07T11:06:58.671Z,27.15
2019-04-07T11:09:40.636Z,25.40
2019-04-07T11:12:21.029Z,27.20
2019-04-07T11:14:57.810Z,28.57
2019-04-07T11:17:27.998Z,31.05
2019-04-07T11:20:01.508Z,29.27
2019-04-07T11:22:47.865Z,33.85
2019-04-07T11:25:24.151Z,31.17
2019-04-07T11:28:11.136Z,31.10
2019-04-07T11:30:42.024Z,34.35
2019-04-07T11:33:24.510Z,31.52
2019-04-07T11:36:04.082Z,31.10
2019-04-07T11:38:34.376Z,27.10
2019-04-07T11:41:11.207Z,26.17
2019-04-07T11:43:44.465Z,28.45
2019-04-07T11:46:17.539Z,27.95
2019-04-07T11:48:47.576Z,30.82
2019-04-07T11:51:18.402Z,27.85
2019-04-07T11:54:05.195Z,31.45
2019-04-07T11:56:47.275Z,33.35
2019-04-07T11:59:20.448Z,30.75
2019-04-07T12:01:53.084Z,30.88
2019-04-07T12:04:41.710Z,31.20
2019-04-07T12:07:19.103Z,31.82
2019-04-07T12:09:49.311Z,29.75
2019-04-07T12:12:31.781Z,28.87
2019-04-07T12:15:22.074Z,27.22
2019-04-07T12:17:53.440Z,30.02
2019-04-07T12:20:25.685Z,28.07
2019-04-07T12:22:58.327Z,27.35
2019-04-07T12:25:45.095Z,29.85
2019-04-07T12:28:19.145Z,26.95
2019-04-07T12:31:04.276Z,28.55
2019-04-07T12:33:37.478Z,29.37
2019-04-07T12:36:12.958Z,32.40
2019-04-07T12:38:48.757Z,30.68
2019-04-07T12:41:23.249Z,28.10
2019-04-07T12:43:54.014Z,26.65
2019-04-07T12:46:26.917Z,26.20
2019-04-07T12:49:09.690Z,26.80
2019-04-07T12:51:43.011Z,25.45
2019-04-07T12:54:16.752Z,28.20
2019-04-07T12:56:58.576Z,26.80
2019-04-07T12:59:31.570Z,26.90
2019-04-07T13:02:10.261Z,26.62
2019-04-07T13:04:52.770Z,26.65
2019-04-07T13:07:40.292Z,25.70
2019-04-07T13:10:14.226Z,25.15
2019-04-07T13:12:47.863Z,23.35
2019-04-07T13:15:34.389Z,24.15
2019-04-07T13:18:13.512Z,25.55
2019-04-07T13:20:53.181Z,24.15
2019-04-07T13:23:26.600Z,22.00
2019-04-07T13:26:16.466Z,21.60
2019-04-07T13:28:50.042Z,19.55
2019-04-07T13:31:21.198Z,20.08
2019-04-07T13:33:52.212Z,20.95
2019-04-07T13:36:28.145Z,22.22
2019-04-07T13:38:58.836Z,18.85
2019-04-07T13:41:38.593Z,19.85
2019-04-07T13:44:19.478Z,17.87
2019-04-07T13:47:07.307Z,19.05
2019-04-07T13:49:38.136Z,16.02
2019-04-07T13:52:23.178Z,15.10
2019-04-07T13:54:59.161Z,15.95
2019-04-07T13:57:38.146Z,16.05
2019-04-07T14:00:20.429Z,15.60
2019-04-07T14:02:50.554Z,14.90
2019-04-07T14:05:33.159Z,13.90
2019-04-07T14:08:07.099Z,15.48
2019-04-07T14:10:40.523Z,12.63
2019-04-07T14:13:10.573Z,12.10
2019-04-07T14:15:46.511Z,12.82
2019-04-07T14:18:33.449Z,14.93
2019-04-07T14:21:13.652Z,13.45
2019-04-07T14:23:52.101Z,13.28
2019-04-07T14:26:21.222Z,13.10
2019-04-07T14:28:54.152Z,13.28
2019-04-07T14:31:26.925Z,13.25
2019-04-07T14:33:57.484Z,12.20
2019-04-07T14:36:43.950Z,13.35
2019-04-07T14:39:31.410Z,15.28
2019-04-07T14:42:08.764Z,14.35
2019-04-07T14:44:51.149Z,12.90
2019-04-07T14:47:27.263Z,13.03
2019-04-07T14:50:06.878Z,12.60
2019-04-07T14:52:52.027Z,12.28
2019-04-07T14:55:24.852Z,14.65
2019-04-07T14:57:55.093Z,17.15
2019-04-07T15:00:29.121Z,14.65
2019-04-07T15:02:58.016Z,15.70
2019-04-07T15:05:28.789Z,16.32
2019-04-07T15:08:00.057Z,16.17
2019-04-07T15:10:30.787Z,16.20
2019-04-07T15:13:01.783Z,16.40
2019-04-07T15:15:30.401Z,15.95
2019-04-07T15:17:59.853Z,16.62
2019-04-07T15:20:28.559Z,17.95
2019-04-07T15:22:59.251Z,19.82
2019-04-07T15:25:29.637Z,18.80
2019-04-07T15:28:00.057Z,17.85
2019-04-07T15:30:28.424Z,17.48
2019-04-07T15:33:00.233Z,18.02
2019-04-07T15:35:27.582Z,17.65
2019-04-07T15:37:57.012Z,20.40
2019-04-07T15:40:25.657Z,17.80
2019-04-07T15:42:54.488Z,19.40
2019-04-07T15:45:23.499Z,19.02
2019-04-07T15:47:53.881Z,20.25
2019-04-07T15:50:22.678Z,19.15
2019-04-07T15:52:51.347Z,20.05
2019-04-07T15:55:20.869Z,20.90
2019-04-07T15:57:53.439Z,16.62
2019-04-07T16:00:21.611Z,17.67
2019-04-07T16:02:52.182Z,17.80
2019-04-07T16:05:21.574Z,17.00
2019-04-07T16:07:53.163Z,17.52
2019-04-07T16:10:21.958Z,18.92
2019-04-07T16:12:52.821Z,18.00
2019-04-07T16:15:21.198Z,19.90
2019-04-07T16:17:50.276Z,18.87
2019-04-07T16:20:24.530Z,18.37
2019-04-07T16:22:51.422Z,17.40
2019-04-07T16:25:19.589Z,16.90
2019-04-07T16:27:48.792Z,16.73
2019-04-07T16:30:19.452Z,15.80
2019-04-07T16:32:48.802Z,16.93
2019-04-07T16:35:17.194Z,19.27
2019-04-07T16:37:45.817Z,18.67
2019-04-07T16:40:14.326Z,16.95
2019-04-07T16:42:53.832Z,18.10
2019-04-07T16:45:16.507Z,18.15
2019-04-07T16:47:43.692Z,17.30
2019-04-07T16:50:12.227Z,18.70
2019-04-07T16:52:40.587Z,16.12
2019-04-07T16:55:28.570Z,19.07
2019-04-07T16:57:59.416Z,16.93
2019-04-07T17:00:28.000Z,15.48
2019-04-07T17:02:56.916Z,17.10
2019-04-07T17:05:26.052Z,18.20
2019-04-07T17:07:55.977Z,17.32
2019-04-07T17:10:29.603Z,16.70
2019-04-07T17:12:55.019Z,15.45
2019-04-07T17:15:23.971Z,17.05
2019-04-07T17:17:53.390Z,15.90
2019-04-07T17:20:25.751Z,18.30
2019-04-07T17:22:52.995Z,15.50
2019-04-07T17:25:22.806Z,17.02
2019-04-07T17:27:51.939Z,16.80
2019-04-07T17:30:24.369Z,19.05
2019-04-07T17:32:52.168Z,17.80
2019-04-07T17:35:21.276Z,16.70
2019-04-07T17:37:50.101Z,17.27
2019-04-07T17:40:20.413Z,16.35
2019-04-07T17:42:52.773Z,16.62
2019-04-07T17:45:37.481Z,18.12
2019-04-07T17:48:17.119Z,88.82
2019-04-07T17:50:53.106Z,103.05
2019-04-07T17:53:23.398Z,48.40
2019-04-07T17:56:10.858Z,38.02
2019-04-07T17:58:44.340Z,25.27
2019-04-07T18:01:31.310Z,20.55
2019-04-07T18:04:13.982Z,18.35
2019-04-07T18:06:51.294Z,16.95
2019-04-07T18:09:24.816Z,20.77
2019-04-07T18:12:00.900Z,19.35
2019-04-07T18:14:45.861Z,17.57
2019-04-07T18:17:22.621Z,15.98
2019-04-07T18:20:01.785Z,17.17
2019-04-07T18:22:31.196Z,18.25
2019-04-07T18:25:10.565Z,23.98
2019-04-07T18:27:41.833Z,105.87
2019-04-07T18:30:31.516Z,21.05
2019-04-07T18:33:20.276Z,18.02
2019-04-07T18:35:54.697Z,21.48
2019-04-07T18:38:34.247Z,20.40
2019-04-07T18:41:10.614Z,18.80
2019-04-07T18:44:03.704Z,19.67
2019-04-07T18:46:50.183Z,21.40
2019-04-07T18:49:22.088Z,17.20
2019-04-07T18:51:58.367Z,21.15
2019-04-07T18:54:45.019Z,18.62
2019-04-07T18:57:15.313Z,18.52
2019-04-07T18:59:50.315Z,20.30
2019-04-07T19:02:23.660Z,17.90
2019-04-07T19:04:58.957Z,17.95
2019-04-07T19:07:31.130Z,17.95
2019-04-07T19:10:10.388Z,23.12
2019-04-07T19:12:41.298Z,19.87
2019-04-07T19:15:29.890Z,22.85
2019-04-07T19:18:16.207Z,22.65
2019-04-07T19:21:01.116Z,113.55
2019-04-07T19:23:40.953Z,50.20
2019-04-07T19:26:27.829Z,42.80
2019-04-07T19:29:10.485Z,26.15
2019-04-07T19:31:51.100Z,23.87
2019-04-07T19:34:28.417Z,20.88
2019-04-07T19:36:56.979Z,23.57
2019-04-07T19:39:43.788Z,21.15
2019-04-07T19:42:14.436Z,22.60
2019-04-07T19:44:53.759Z,22.17
2019-04-07T19:47:39.525Z,22.95
2019-04-07T19:50:12.193Z,20.80
2019-04-07T19:52:45.162Z,22.65
2019-04-07T19:55:26.351Z,24.72
2019-04-07T19:58:01.927Z,27.90
2019-04-07T20:00:30.796Z,28.83
2019-04-07T20:03:17.927Z,25.75
2019-04-07T20:05:50.149Z,27.98
2019-04-07T20:08:20.669Z,22.20
2019-04-07T20:10:52.289Z,21.97
2019-04-07T20:13:34.450Z,19.87
2019-04-07T20:16:04.621Z,20.27
2019-04-07T20:18:37.578Z,23.95
2019-04-07T20:21:34.841Z,22.22
2019-04-07T20:24:10.740Z,23.35
2019-04-07T20:26:50.744Z,22.10
2019-04-07T20:29:19.362Z,21.68
2019-04-07T20:32:07.560Z,21.73
2019-04-07T20:34:43.830Z,24.07
2019-04-07T20:37:30.175Z,23.70
2019-04-07T20:40:12.533Z,23.55
2019-04-07T20:42:46.390Z,24.15
2019-04-07T20:45:20.029Z,23.85
2019-04-07T20:47:49.229Z,23.52
2019-04-07T20:50:19.588Z,19.05
2019-04-07T20:53:10.080Z,21.42
2019-04-07T20:55:34.447Z,22.87
2019-04-07T20:58:18.770Z,21.68
2019-04-07T21:00:55.997Z,21.07
2019-04-07T21:03:29.054Z,20.08
2019-04-07T21:06:11.172Z,20.15
2019-04-07T21:08:59.513Z,20.65
2019-04-07T21:11:37.645Z,19.80
2019-04-07T21:14:23.967Z,19.42
2019-04-07T21:16:57.868Z,20.85
2019-04-07T21:19:42.253Z,20.95
2019-04-07T21:22:14.278Z,20.62
2019-04-07T21:24:44.269Z,23.42
2019-04-07T21:27:14.402Z,22.82
2019-04-07T21:29:45.933Z,22.40
2019-04-07T21:32:18.351Z,23.22
2019-04-07T21:34:51.476Z,22.50
2019-04-07T21:37:36.490Z,22.48
2019-04-07T21:40:13.218Z,20.70
2019-04-07T21:43:02.663Z,21.00
2019-04-07T21:45:40.941Z,24.30
2019-04-07T21:48:20.627Z,22.60
2019-04-07T21:50:53.702Z,22.30
2019-04-07T21:53:26.559Z,22.67
2019-04-07T21:55:58.406Z,23.47
2019-04-07T21:58:46.024Z,26.95
2019-04-07T22:01:16.671Z,23.50
2019-04-07T22:03:58.938Z,21.70
2019-04-07T22:06:44.497Z,21.62
2019-04-07T22:09:16.486Z,20.82
2019-04-07T22:11:45.838Z,19.73
2019-04-07T22:14:14.613Z,21.93
2019-04-07T22:16:43.243Z,20.02
2019-04-07T22:19:13.975Z,21.23
2019-04-07T22:21:42.414Z,20.72
2019-04-07T22:24:11.097Z,23.32
2019-04-07T22:26:40.603Z,20.95
2019-04-07T22:29:09.773Z,20.95
2019-04-07T22:31:46.707Z,20.25
2019-04-07T22:34:16.548Z,21.75
2019-04-07T22:36:47.510Z,22.30
2019-04-07T22:39:15.088Z,22.65
2019-04-07T22:41:46.171Z,19.55
2019-04-07T22:44:15.534Z,18.87
2019-04-07T22:46:48.106Z,17.60
2019-04-07T22:49:14.221Z,16.80
2019-04-07T22:51:44.517Z,18.27
2019-04-07T22:54:14.058Z,16.97
2019-04-07T22:56:42.838Z,18.32
2019-04-07T22:59:11.896Z,18.25
2019-04-07T23:01:41.434Z,17.00
2019-04-07T23:04:09.783Z,15.88
2019-04-07T23:06:39.215Z,17.45
2019-04-07T23:09:07.886Z,14.87
2019-04-07T23:11:36.331Z,17.02
2019-04-07T23:14:04.826Z,17.37
2019-04-07T23:16:33.249Z,16.85
2019-04-07T23:19:02.587Z,14.38
2019-04-07T23:21:31.968Z,16.35
2019-04-07T23:24:01.235Z,16.57
2019-04-07T23:26:29.967Z,17.42
2019-04-07T23:28:58.682Z,16.85
2019-04-07T23:31:28.233Z,17.35
2019-04-07T23:33:56.611Z,16.97
2019-04-07T23:36:25.150Z,17.42
2019-04-07T23:38:53.881Z,17.87
2019-04-07T23:41:22.739Z,17.23
2019-04-07T23:43:51.410Z,17.90
2019-04-07T23:46:24.706Z,17.55
2019-04-07T23:48:49.997Z,18.37
2019-04-07T23:51:18.572Z,16.10
2019-04-07T23:54:07.668Z,16.62
2019-04-07T23:56:37.437Z,17.15
2019-04-07T23:59:06.243Z,19.48
